Portada
METAR-TAF:

METAR-TAF

Aeropuertos :

Udaipur, India

latitud: 24-37-04N, longitud: 73-53-46E, altitud: 513 m

Observación

El informe se hizo hace 4 horas y 39 minutos, a las 06:00 UTC
Viento 6 kt del noroeste
Temperatura 33°C
Humedad 32%
Presión 1013 hPa

METAR: VAUD 070600Z 32006KT 10000 NSC 33/14 Q1013 NOSIG

Hora: 16:09 (10:39 UTC)

Pronóstico

El informe se hizo hace 8 horas y 39 minutos, a las 02:00 UTC
Pronóstico válido del 07 a las 03 UTC al 07 a las 12 UTC
Viento 4 kt del este
Visibilidad: 3000 m
calima
Evolucionando progresivamente
del 07 a las 04 UTC al 07 a las 06 UTC
Viento 6 kt del este
Visibilidad: 5000 m
calima

TAF: VAUD 070200Z 0703/0712 09004KT 3000 HZ NSC BECMG 0704/0706 09006KT 5000 HZ

Observaciones y pronósticos meteorológicos de más de 4000 aeropuertos (mensajes METAR y TAF).

Los puntos amarillos y rojos representan las estaciones disponibles.

Ponga el ratón en el punto deseado para ver el nombre de la estación.

Haga clic para ver las observaciones y los pronósticos meteorológicos.

Para cambiar el mapa : haga clic en los botones verdes con una cruz de color negro para hacer un zoom, en el botón verde con un guión para alejar o en las flechas verdes para mapas adyacentes.


METAR-TAF: